Weather at Ulmodrome de Limoux

Public forecast

Using degrees Celsius for public forecast. Weather courtesy of forecast.io.

Closest aviation weather report (METAR) to Ulmodrome de Limoux

Closest report is Carcassonne Airport, 10.2 nm (18.9 km) NNE. Retrieved 2020/09/19 15:30 UTC (0 seconds ago):

LFMK 191530Z AUTO 06019KT 9999 ///CB 28/18 Q1009 TEMPO 09020G30KT SHRA

Closest aviation forecast (TAF) to Ulmodrome de Limoux

Closest forecast is Carcassonne Airport, 10.2 nm (18.9 km) NNE. Retrieved 2020/09/19 15:55 UTC (0 seconds ago):

TAF LFMK 191400Z 1915/2015 09012KT 9999 SCT030 BKN100 PROB30 TEMPO 1915/1918 09020G30KT SHRA SCT030TCU TEMPO 1918/1923 VRB20G30KT 4000 TSRA BKN015 SCT020CB BECMG 1923/2002 28010KT TEMPO 2005/2012 SHRA SCT025TCU